Terminal Aerodrome Forecast
Issued by NWS

Home | Current Version | Previous Version | Text Only | Print | Product List | Glossary On
Versions: 1 2 3 4 5 6 7 8 9 10 11 12 13 14 15
000
FTAK31 PANC 250217 AAA
TAFAGK
TAF AMD
PAGK 250217Z 2502/2524 34008KT P6SM VCSH BKN060
     FM250600 35004KT P6SM SCT060 BKN090
     FM251800 VRB05KT P6SM SCT100=

USA.gov is the U.S. government's official web portal to all federal, state and local government web resources and services.